createdAt,value
2022-08-05T00:00:50.032Z,3.60
2022-08-05T00:03:17.392Z,6.22
2022-08-05T00:06:06.426Z,2.28
2022-08-05T00:08:34.701Z,3.65
2022-08-05T00:11:05.112Z,5.40
2022-08-05T00:13:47.295Z,5.22
2022-08-05T00:16:20.192Z,6.10
2022-08-05T00:19:04.368Z,4.40
2022-08-05T00:21:31.294Z,3.33
2022-08-05T00:24:10.002Z,3.25
2022-08-05T00:26:38.859Z,3.35
2022-08-05T00:29:10.384Z,2.55
2022-08-05T00:31:54.085Z,2.67
2022-08-05T00:34:54.291Z,3.22
2022-08-05T00:37:14.288Z,4.65
2022-08-05T00:39:58.764Z,4.65
2022-08-05T00:42:37.914Z,2.65
2022-08-05T00:45:08.690Z,4.70
2022-08-05T00:47:56.747Z,4.38
2022-08-05T00:50:26.013Z,3.53
2022-08-05T00:52:55.089Z,3.92
2022-08-05T00:55:23.405Z,2.67
2022-08-05T00:58:11.158Z,2.67
2022-08-05T01:00:39.663Z,3.53
2022-08-05T01:03:07.889Z,5.00
2022-08-05T01:05:35.287Z,3.97
2022-08-05T01:08:40.070Z,3.55
2022-08-05T01:10:59.600Z,5.70
2022-08-05T01:14:08.795Z,5.82
2022-08-05T01:16:54.572Z,2.83
2022-08-05T01:19:30.102Z,2.50
2022-08-05T01:22:27.742Z,1.92
2022-08-05T01:25:39.641Z,2.97
2022-08-05T01:28:35.055Z,3.08
2022-08-05T01:31:16.878Z,2.20
2022-08-05T01:33:53.466Z,4.32
2022-08-05T01:36:28.053Z,3.63
2022-08-05T01:38:56.695Z,3.38
2022-08-05T01:41:31.056Z,2.55
2022-08-05T01:44:02.038Z,2.35
2022-08-05T01:46:42.191Z,4.70
2022-08-05T01:49:24.182Z,5.60
2022-08-05T01:51:58.040Z,2.92
2022-08-05T01:54:46.123Z,5.45
2022-08-05T01:58:11.544Z,3.95
2022-08-05T02:00:06.454Z,3.45
2022-08-05T02:02:53.644Z,4.30
2022-08-05T02:05:28.631Z,3.58
2022-08-05T02:08:01.287Z,2.60
2022-08-05T02:10:32.860Z,5.13
2022-08-05T02:13:24.740Z,4.45
2022-08-05T02:16:24.340Z,6.00
2022-08-05T02:19:11.724Z,4.82
2022-08-05T02:21:49.858Z,3.08
2022-08-05T02:24:23.399Z,5.75
2022-08-05T02:26:58.251Z,8.68
2022-08-05T02:29:59.839Z,4.72
2022-08-05T02:32:19.741Z,4.05
2022-08-05T02:34:54.993Z,2.33
2022-08-05T02:37:23.880Z,4.93
2022-08-05T02:39:53.094Z,5.18
2022-08-05T02:42:26.057Z,3.92
2022-08-05T02:44:57.049Z,5.22
2022-08-05T02:47:26.187Z,2.08
2022-08-05T02:50:14.563Z,6.82
2022-08-05T02:52:46.875Z,4.68
2022-08-05T02:55:14.522Z,6.78
2022-08-05T02:58:20.176Z,2.30
2022-08-05T03:00:35.097Z,4.80
2022-08-05T03:03:10.122Z,4.80
2022-08-05T03:06:55.754Z,5.32
2022-08-05T03:08:27.160Z,2.83
2022-08-05T03:11:53.256Z,4.90
2022-08-05T03:13:51.718Z,7.43
2022-08-05T03:16:30.057Z,5.90
2022-08-05T03:18:59.144Z,3.72
2022-08-05T03:21:28.723Z,5.78
2022-08-05T03:23:57.685Z,3.83
2022-08-05T03:26:31.902Z,4.00
2022-08-05T03:28:59.903Z,6.20
2022-08-05T03:31:55.639Z,2.78
2022-08-05T03:34:14.655Z,4.35
2022-08-05T03:36:41.614Z,2.53
2022-08-05T03:39:13.134Z,4.82
2022-08-05T03:41:47.276Z,3.95
2022-08-05T03:44:19.868Z,3.58
2022-08-05T03:46:47.546Z,3.35
2022-08-05T03:49:15.789Z,2.30
2022-08-05T03:52:37.587Z,4.70
2022-08-05T03:56:01.592Z,3.88
2022-08-05T03:57:45.619Z,4.07
2022-08-05T04:00:15.770Z,4.82
2022-08-05T04:02:57.915Z,5.85
2022-08-05T04:05:33.704Z,4.07
2022-08-05T04:08:30.089Z,9.68
2022-08-05T04:10:58.438Z,3.70
2022-08-05T04:13:49.376Z,5.18
2022-08-05T04:16:14.505Z,5.35
2022-08-05T04:18:41.836Z,4.55
2022-08-05T04:22:05.130Z,6.32
2022-08-05T04:24:06.477Z,8.82
2022-08-05T04:26:35.954Z,8.02
2022-08-05T04:29:07.153Z,6.70
2022-08-05T04:31:38.685Z,7.40
2022-08-05T04:34:31.307Z,8.73
2022-08-05T04:36:54.971Z,5.30
2022-08-05T04:39:22.270Z,10.48
2022-08-05T04:41:51.226Z,8.30
2022-08-05T04:44:21.531Z,8.43
2022-08-05T04:46:58.479Z,12.63
2022-08-05T04:49:38.767Z,6.97
2022-08-05T04:52:13.187Z,3.92
2022-08-05T04:54:40.208Z,6.20
2022-08-05T04:57:07.155Z,8.85
2022-08-05T04:59:38.326Z,9.38
2022-08-05T05:02:37.314Z,4.95
2022-08-05T05:05:02.334Z,7.05
2022-08-05T05:07:32.249Z,8.88
2022-08-05T05:10:02.179Z,10.73
2022-08-05T05:12:29.842Z,7.18
2022-08-05T05:14:56.723Z,8.85
2022-08-05T05:17:55.811Z,11.50
2022-08-05T05:20:12.303Z,8.07
2022-08-05T05:22:40.926Z,7.35
2022-08-05T05:25:16.842Z,7.95
2022-08-05T05:27:48.606Z,12.18
2022-08-05T05:30:29.804Z,11.40
2022-08-05T05:33:00.840Z,14.18
2022-08-05T05:35:38.053Z,9.20
2022-08-05T05:38:09.419Z,8.50
2022-08-05T05:40:48.368Z,8.20
2022-08-05T05:43:54.583Z,13.73
2022-08-05T05:46:17.579Z,11.00
2022-08-05T05:48:48.341Z,7.85
2022-08-05T05:51:27.842Z,5.00
2022-08-05T05:53:58.511Z,7.53
2022-08-05T05:56:31.558Z,5.60
2022-08-05T05:59:03.558Z,9.05
2022-08-05T06:01:37.675Z,6.13
2022-08-05T06:04:11.688Z,7.18
2022-08-05T06:06:47.670Z,4.63
2022-08-05T06:09:24.839Z,8.63
2022-08-05T06:12:01.457Z,8.50
2022-08-05T06:14:30.897Z,5.85
2022-08-05T06:16:58.387Z,3.30
2022-08-05T06:19:35.052Z,8.57
2022-08-05T06:22:04.083Z,5.43
2022-08-05T06:24:32.015Z,3.90
2022-08-05T06:26:58.920Z,6.65
2022-08-05T06:29:48.964Z,6.85
2022-08-05T06:32:21.290Z,6.30
2022-08-05T06:34:57.360Z,6.18
2022-08-05T06:37:55.842Z,10.70
2022-08-05T06:40:18.213Z,10.02
2022-08-05T06:42:51.679Z,8.05
2022-08-05T06:45:21.524Z,8.35
2022-08-05T06:48:36.023Z,6.68
2022-08-05T06:50:54.565Z,4.70
2022-08-05T06:53:27.794Z,4.70
2022-08-05T06:55:59.831Z,4.57
2022-08-05T06:58:35.460Z,5.45
2022-08-05T07:01:05.910Z,6.47
2022-08-05T07:03:33.925Z,8.40
2022-08-05T07:06:05.377Z,8.77
2022-08-05T07:08:33.309Z,6.13
2022-08-05T07:11:00.200Z,6.93
2022-08-05T07:13:57.596Z,5.25
2022-08-05T07:18:01.614Z,4.85
2022-08-05T07:22:28.233Z,2.95
2022-08-05T07:24:58.471Z,6.05
2022-08-05T07:27:27.673Z,7.43
2022-08-05T07:30:30.115Z,6.45
2022-08-05T07:32:59.179Z,4.05
2022-08-05T07:36:04.526Z,4.55
2022-08-05T07:38:34.702Z,5.35
2022-08-05T07:42:07.209Z,7.85
2022-08-05T07:43:57.052Z,7.25
2022-08-05T07:46:29.213Z,6.63
2022-08-05T07:49:02.590Z,7.05
2022-08-05T07:51:48.795Z,4.00
2022-08-05T07:54:31.226Z,3.17
2022-08-05T07:57:22.639Z,6.57
2022-08-05T07:59:49.541Z,4.38
2022-08-05T08:02:18.071Z,4.20
2022-08-05T08:04:47.213Z,5.05
2022-08-05T08:07:23.059Z,4.63
2022-08-05T08:09:53.077Z,3.22
2022-08-05T08:12:35.549Z,2.60
2022-08-05T08:15:09.447Z,1.75
2022-08-05T08:17:46.109Z,4.25
2022-08-05T08:20:44.015Z,3.97
2022-08-05T08:23:04.637Z,4.35
2022-08-05T08:26:00.107Z,6.65
2022-08-05T08:28:36.716Z,7.05
2022-08-05T08:31:07.087Z,3.10
2022-08-05T08:33:38.063Z,5.25
2022-08-05T08:36:38.474Z,4.93
2022-08-05T08:38:55.721Z,3.33
2022-08-05T08:41:26.294Z,4.45
2022-08-05T08:45:22.975Z,4.55
2022-08-05T08:47:03.886Z,4.60
2022-08-05T08:50:23.068Z,3.10
2022-08-05T08:52:41.445Z,3.35
2022-08-05T08:55:19.619Z,9.10
2022-08-05T08:58:02.376Z,4.07
2022-08-05T09:00:30.918Z,3.47
2022-08-05T09:02:59.181Z,3.30
2022-08-05T09:05:38.419Z,3.55
2022-08-05T09:08:13.864Z,4.25
2022-08-05T09:10:46.738Z,5.47
2022-08-05T09:13:15.333Z,6.43
2022-08-05T09:15:43.185Z,6.57
2022-08-05T09:18:13.475Z,4.55
2022-08-05T09:20:43.585Z,10.57
2022-08-05T09:23:21.787Z,4.60
2022-08-05T09:26:06.331Z,8.13
2022-08-05T09:28:35.027Z,5.65
2022-08-05T09:31:18.313Z,3.65
2022-08-05T09:33:54.892Z,6.95
2022-08-05T09:36:27.650Z,3.72
2022-08-05T09:39:16.481Z,2.53
2022-08-05T09:42:01.130Z,5.10
2022-08-05T09:44:38.403Z,6.00
2022-08-05T09:47:20.582Z,3.50
2022-08-05T09:50:02.164Z,2.83
2022-08-05T09:52:33.670Z,6.55
2022-08-05T09:55:58.277Z,4.20
2022-08-05T09:57:59.961Z,3.78
2022-08-05T10:00:27.750Z,2.53
2022-08-05T10:02:58.422Z,3.30
2022-08-05T10:05:28.096Z,5.68
2022-08-05T10:08:35.170Z,3.00
2022-08-05T10:10:54.601Z,2.40
2022-08-05T10:13:47.436Z,5.68
2022-08-05T10:16:37.909Z,4.05
2022-08-05T10:19:11.807Z,3.72
2022-08-05T10:21:40.214Z,3.60
2022-08-05T10:24:13.649Z,3.83
2022-08-05T10:26:51.910Z,3.63
2022-08-05T10:29:23.497Z,4.70
2022-08-05T10:32:54.991Z,4.15
2022-08-05T10:35:01.131Z,3.38
2022-08-05T10:37:40.423Z,4.18
2022-08-05T10:40:19.561Z,10.52
2022-08-05T10:42:50.765Z,2.33
2022-08-05T10:45:40.324Z,5.10
2022-08-05T10:48:56.535Z,3.47
2022-08-05T10:51:29.167Z,3.03
2022-08-05T10:54:01.763Z,3.03
2022-08-05T10:56:49.414Z,4.15
2022-08-05T11:00:02.043Z,3.88
2022-08-05T11:02:38.804Z,3.13
2022-08-05T11:05:05.896Z,3.83
2022-08-05T11:08:01.264Z,3.83
2022-08-05T11:10:50.289Z,4.22
2022-08-05T11:13:54.967Z,5.13
2022-08-05T11:16:33.797Z,4.65
2022-08-05T11:20:10.007Z,5.55
2022-08-05T11:22:43.513Z,3.40
2022-08-05T11:26:04.311Z,6.45
2022-08-05T11:28:30.860Z,3.20
2022-08-05T11:31:06.183Z,2.13
2022-08-05T11:33:49.191Z,2.13
2022-08-05T11:36:40.496Z,5.32
2022-08-05T11:39:13.643Z,4.87
2022-08-05T11:42:01.357Z,8.18
2022-08-05T11:44:53.287Z,3.70
2022-08-05T11:47:49.047Z,4.38
2022-08-05T11:50:14.243Z,5.07
2022-08-05T11:52:44.108Z,4.32
2022-08-05T11:55:15.895Z,5.78
2022-08-05T11:58:10.320Z,4.45
2022-08-05T12:00:38.096Z,2.88
2022-08-05T12:03:28.875Z,2.70
2022-08-05T12:06:06.003Z,6.35
2022-08-05T12:08:33.881Z,2.80
2022-08-05T12:11:05.989Z,5.40
2022-08-05T12:13:48.943Z,23.15
2022-08-05T12:16:19.338Z,10.15
2022-08-05T12:18:52.299Z,12.07
2022-08-05T12:24:04.757Z,5.80
2022-08-05T12:26:44.585Z,3.85
2022-08-05T12:29:16.274Z,6.63
2022-08-05T12:31:55.432Z,11.40
2022-08-05T12:34:31.356Z,27.75
2022-08-05T12:37:10.560Z,7.72
2022-08-05T12:39:41.085Z,46.33
2022-08-05T12:42:14.923Z,19.48
2022-08-05T12:44:43.202Z,14.10
2022-08-05T12:47:12.523Z,40.58
2022-08-05T12:50:04.071Z,47.40
2022-08-05T12:52:35.402Z,103.35
2022-08-05T12:55:26.680Z,54.20
2022-08-05T12:58:38.615Z,9.80
2022-08-05T13:02:01.165Z,33.28
2022-08-05T13:03:42.170Z,8.35
2022-08-05T13:06:17.623Z,6.68
2022-08-05T13:08:51.545Z,8.35
2022-08-05T13:11:25.661Z,7.00
2022-08-05T13:14:36.100Z,4.45
2022-08-05T13:17:31.487Z,5.40
2022-08-05T13:20:15.949Z,4.57
2022-08-05T13:22:52.795Z,4.18
2022-08-05T13:25:22.193Z,3.33
2022-08-05T13:28:07.908Z,7.38
2022-08-05T13:30:39.281Z,10.15
2022-08-05T13:33:06.367Z,6.20
2022-08-05T13:35:47.406Z,7.22
2022-08-05T13:38:30.243Z,4.88
2022-08-05T13:41:01.020Z,4.38
2022-08-05T13:43:44.304Z,5.57
2022-08-05T13:46:16.358Z,4.30
2022-08-05T13:49:01.011Z,5.40
2022-08-05T13:51:40.177Z,2.85
2022-08-05T13:54:12.925Z,4.15
2022-08-05T13:56:51.471Z,6.27
2022-08-05T13:59:24.217Z,4.10
2022-08-05T14:01:57.968Z,5.50
2022-08-05T14:04:51.736Z,4.07
2022-08-05T14:07:26.423Z,6.30
2022-08-05T14:10:18.763Z,3.70
2022-08-05T14:12:55.226Z,5.90
2022-08-05T14:16:08.237Z,9.43
2022-08-05T14:18:14.665Z,7.05
2022-08-05T14:20:47.126Z,5.28
2022-08-05T14:23:24.532Z,8.85
2022-08-05T14:25:58.198Z,7.45
2022-08-05T14:28:28.402Z,6.95
2022-08-05T14:30:56.448Z,6.22
2022-08-05T14:33:23.703Z,5.22
2022-08-05T14:35:52.318Z,3.35
2022-08-05T14:38:32.892Z,6.07
2022-08-05T14:41:05.938Z,6.32
2022-08-05T14:43:57.753Z,6.07
2022-08-05T14:46:29.015Z,2.63
2022-08-05T14:49:06.467Z,7.28
2022-08-05T14:51:36.413Z,7.20
2022-08-05T14:54:25.940Z,4.68
2022-08-05T14:56:54.658Z,7.82
2022-08-05T14:59:22.255Z,4.40
2022-08-05T15:01:50.493Z,3.63
2022-08-05T15:04:20.638Z,2.35
2022-08-05T15:06:50.688Z,4.57
2022-08-05T15:09:54.184Z,4.55
2022-08-05T15:12:16.583Z,4.60
2022-08-05T15:14:49.933Z,5.30
2022-08-05T15:17:46.059Z,6.50
2022-08-05T15:20:09.774Z,4.32
2022-08-05T15:22:44.856Z,7.78
2022-08-05T15:25:14.489Z,5.00
2022-08-05T15:27:42.875Z,5.82
2022-08-05T15:30:19.099Z,9.82
2022-08-05T15:32:46.777Z,4.95
2022-08-05T15:35:14.730Z,5.75
2022-08-05T15:38:09.094Z,5.57
2022-08-05T15:40:58.256Z,4.88
2022-08-05T15:43:20.280Z,2.90
2022-08-05T15:46:00.649Z,4.47
2022-08-05T15:48:29.902Z,6.97
2022-08-05T15:50:56.983Z,8.85
2022-08-05T15:53:26.317Z,6.93
2022-08-05T15:56:02.762Z,5.05
2022-08-05T15:58:35.554Z,4.53
2022-08-05T16:01:17.407Z,4.15
2022-08-05T16:03:48.404Z,6.10
2022-08-05T16:06:19.676Z,8.18
2022-08-05T16:08:47.870Z,3.13
2022-08-05T16:11:18.085Z,3.95
2022-08-05T16:13:48.450Z,7.47
2022-08-05T16:16:25.251Z,3.92
2022-08-05T16:18:53.074Z,4.47
2022-08-05T16:21:20.811Z,5.90
2022-08-05T16:24:12.880Z,3.05
2022-08-05T16:26:57.017Z,7.55
2022-08-05T16:29:25.513Z,5.38
2022-08-05T16:31:57.393Z,6.70
2022-08-05T16:34:26.351Z,5.10
2022-08-05T16:36:54.607Z,5.82
2022-08-05T16:39:22.731Z,7.85
2022-08-05T16:42:15.145Z,3.40
2022-08-05T16:44:44.594Z,6.03
2022-08-05T16:47:28.998Z,4.80
2022-08-05T16:50:05.252Z,4.78
2022-08-05T16:52:33.577Z,7.35
2022-08-05T16:55:00.741Z,5.20
2022-08-05T16:57:42.944Z,4.78
2022-08-05T17:00:26.262Z,3.47
2022-08-05T17:03:02.917Z,3.75
2022-08-05T17:05:31.008Z,5.18
2022-08-05T17:07:58.221Z,4.63
2022-08-05T17:10:26.415Z,6.05
2022-08-05T17:12:57.833Z,4.10
2022-08-05T17:15:24.948Z,4.10
2022-08-05T17:18:14.081Z,7.07
2022-08-05T17:20:41.922Z,6.45
2022-08-05T17:24:03.270Z,3.05
2022-08-05T17:25:58.204Z,7.53
2022-08-05T17:28:25.161Z,4.30
2022-08-05T17:30:55.840Z,5.43
2022-08-05T17:33:23.209Z,5.57
2022-08-05T17:36:07.424Z,2.92
2022-08-05T17:38:37.315Z,4.53
2022-08-05T17:41:07.490Z,4.70
2022-08-05T17:43:53.403Z,4.65
2022-08-05T17:46:21.299Z,7.00
2022-08-05T17:48:48.272Z,3.85
2022-08-05T17:51:21.835Z,5.20
2022-08-05T17:53:50.733Z,11.67
2022-08-05T17:56:21.581Z,4.28
2022-08-05T17:58:49.921Z,5.75
2022-08-05T18:01:18.526Z,4.85
2022-08-05T18:03:58.364Z,3.75
2022-08-05T18:06:31.186Z,5.68
2022-08-05T18:08:58.406Z,6.82
2022-08-05T18:11:32.797Z,3.70
2022-08-05T18:14:03.608Z,6.60
2022-08-05T18:16:31.639Z,6.85
2022-08-05T18:18:58.578Z,6.15
2022-08-05T18:21:26.407Z,4.47
2022-08-05T18:24:12.730Z,6.85
2022-08-05T18:26:41.485Z,7.53
2022-08-05T18:29:10.823Z,6.10
2022-08-05T18:31:38.229Z,6.55
2022-08-05T18:34:12.827Z,6.30
2022-08-05T18:36:43.660Z,4.85
2022-08-05T18:39:22.443Z,6.38
2022-08-05T18:42:06.147Z,8.63
2022-08-05T18:44:55.560Z,11.18
2022-08-05T18:47:26.584Z,10.52
2022-08-05T18:50:13.038Z,8.55
2022-08-05T18:52:50.940Z,13.75
2022-08-05T18:55:19.886Z,6.20
2022-08-05T18:57:53.102Z,6.47
2022-08-05T19:02:57.527Z,3.33
2022-08-05T19:06:13.496Z,9.85
2022-08-05T19:08:17.445Z,5.20
2022-08-05T19:10:45.766Z,5.90
2022-08-05T19:13:15.893Z,5.40
2022-08-05T19:16:00.257Z,5.93
2022-08-05T19:18:31.760Z,9.98
2022-08-05T19:20:59.714Z,7.55
2022-08-05T19:24:06.997Z,6.78
2022-08-05T19:26:16.492Z,5.15
2022-08-05T19:28:43.945Z,6.93
2022-08-05T19:31:13.247Z,7.78
2022-08-05T19:33:48.426Z,7.70
2022-08-05T19:36:27.047Z,7.07
2022-08-05T19:39:00.967Z,8.23
2022-08-05T19:41:58.557Z,10.07
2022-08-05T19:44:19.413Z,6.60
2022-08-05T19:46:46.583Z,6.03
2022-08-05T19:49:17.127Z,5.88
2022-08-05T19:52:05.703Z,6.55
2022-08-05T19:54:34.346Z,5.10
2022-08-05T19:57:06.777Z,6.85
2022-08-05T19:59:54.669Z,7.18
2022-08-05T20:02:25.983Z,7.25
2022-08-05T20:04:55.371Z,5.78
2022-08-05T20:07:45.724Z,9.32
2022-08-05T20:10:14.250Z,6.28
2022-08-05T20:12:47.851Z,4.22
2022-08-05T20:18:09.606Z,3.05
2022-08-05T20:20:36.936Z,5.82
2022-08-05T20:23:05.626Z,4.22
2022-08-05T20:25:39.879Z,6.35
2022-08-05T20:28:13.645Z,6.63
2022-08-05T20:30:41.459Z,5.35
2022-08-05T20:33:08.821Z,5.85
2022-08-05T20:35:40.572Z,5.22
2022-08-05T20:38:20.204Z,5.43
2022-08-05T20:40:53.943Z,3.97
2022-08-05T20:43:33.220Z,6.07
2022-08-05T20:46:10.405Z,5.07
2022-08-05T20:48:45.340Z,4.75
2022-08-05T20:51:17.988Z,5.78
2022-08-05T20:53:56.895Z,8.13
2022-08-05T20:56:32.964Z,4.35
2022-08-05T20:59:14.010Z,3.83
2022-08-05T21:01:46.397Z,3.60
2022-08-05T21:04:14.166Z,4.78
2022-08-05T21:06:45.227Z,4.50
2022-08-05T21:09:14.893Z,7.25
2022-08-05T21:12:10.868Z,3.65
2022-08-05T21:14:35.200Z,6.50
2022-08-05T21:17:06.271Z,4.20
2022-08-05T21:19:46.767Z,7.35
2022-08-05T21:22:23.200Z,4.55
2022-08-05T21:24:52.350Z,3.50
2022-08-05T21:27:25.547Z,4.72
2022-08-05T21:29:56.278Z,3.70
2022-08-05T21:32:26.635Z,5.25
2022-08-05T21:35:16.781Z,5.43
2022-08-05T21:37:47.002Z,6.00
2022-08-05T21:40:14.585Z,5.75
2022-08-05T21:42:45.272Z,6.20
2022-08-05T21:45:24.864Z,7.70
2022-08-05T21:48:02.554Z,3.50
2022-08-05T21:50:33.797Z,7.00
2022-08-05T21:53:16.105Z,5.78
2022-08-05T21:56:05.263Z,2.70
2022-08-05T21:58:32.107Z,5.50
2022-08-05T22:00:59.828Z,2.67
2022-08-05T22:03:48.814Z,4.88
2022-08-05T22:06:16.406Z,4.75
2022-08-05T22:08:52.081Z,9.32
2022-08-05T22:11:35.236Z,3.60
2022-08-05T22:14:31.451Z,4.68
2022-08-05T22:16:55.968Z,7.03
2022-08-05T22:19:57.140Z,5.15
2022-08-05T22:22:11.830Z,4.03
2022-08-05T22:24:57.562Z,2.85
2022-08-05T22:28:09.354Z,6.47
2022-08-05T22:30:35.898Z,5.45
2022-08-05T22:33:15.134Z,5.15
2022-08-05T22:35:48.740Z,7.57
2022-08-05T22:38:17.187Z,5.93
2022-08-05T22:40:49.300Z,6.53
2022-08-05T22:43:36.555Z,4.07
2022-08-05T22:46:12.034Z,3.33
2022-08-05T22:48:50.222Z,7.03
2022-08-05T22:51:23.290Z,4.38
2022-08-05T22:54:04.655Z,6.80
2022-08-05T22:56:31.656Z,5.65
2022-08-05T22:59:03.246Z,5.40
2022-08-05T23:02:04.146Z,3.65
2022-08-05T23:04:33.420Z,6.03
2022-08-05T23:07:00.373Z,4.13
2022-08-05T23:09:58.199Z,4.32
2022-08-05T23:12:16.304Z,6.82
2022-08-05T23:14:43.883Z,3.60
2022-08-05T23:17:32.664Z,4.30
2022-08-05T23:20:16.635Z,4.90
2022-08-05T23:22:48.708Z,5.60
2022-08-05T23:25:51.089Z,2.83
2022-08-05T23:28:07.079Z,4.65
2022-08-05T23:30:40.055Z,3.58
2022-08-05T23:33:22.068Z,6.03
2022-08-05T23:35:56.028Z,6.57
2022-08-05T23:38:25.876Z,3.42
2022-08-05T23:40:53.156Z,4.35
2022-08-05T23:43:25.572Z,4.35
2022-08-05T23:46:19.912Z,2.58
2022-08-05T23:48:59.627Z,4.05
2022-08-05T23:51:53.975Z,6.78
2022-08-05T23:54:26.094Z,6.40
2022-08-05T23:56:54.798Z,3.63
2022-08-05T23:59:22.716Z,5.20
